sensor_id;sensor_type;location;lat;lon;timestamp;temperature;humidity
26262;DHT22;13988;52.446;13.280;2023-08-12T00:00:29;17.60;99.90
26262;DHT22;13988;52.446;13.280;2023-08-12T00:02:55;17.60;99.90
26262;DHT22;13988;52.446;13.280;2023-08-12T00:05:21;17.60;99.90
26262;DHT22;13988;52.446;13.280;2023-08-12T00:07:48;17.60;99.90
26262;DHT22;13988;52.446;13.280;2023-08-12T00:10:13;17.50;99.90
26262;DHT22;13988;52.446;13.280;2023-08-12T00:12:40;17.40;99.90
26262;DHT22;13988;52.446;13.280;2023-08-12T00:15:07;17.40;99.90
26262;DHT22;13988;52.446;13.280;2023-08-12T00:17:33;17.30;99.90
26262;DHT22;13988;52.446;13.280;2023-08-12T00:20:00;17.30;99.90
26262;DHT22;13988;52.446;13.280;2023-08-12T00:22:26;17.30;99.90
26262;DHT22;13988;52.446;13.280;2023-08-12T00:24:52;17.30;99.90
26262;DHT22;13988;52.446;13.280;2023-08-12T00:27:18;17.20;99.90
26262;DHT22;13988;52.446;13.280;2023-08-12T00:29:44;17.20;99.90
26262;DHT22;13988;52.446;13.280;2023-08-12T00:32:09;17.20;99.90
26262;DHT22;13988;52.446;13.280;2023-08-12T00:34:35;17.20;99.90
26262;DHT22;13988;52.446;13.280;2023-08-12T00:37:01;17.20;99.90
26262;DHT22;13988;52.446;13.280;2023-08-12T00:39:27;17.20;99.90
26262;DHT22;13988;52.446;13.280;2023-08-12T00:41:52;17.10;99.90
26262;DHT22;13988;52.446;13.280;2023-08-12T00:44:18;17.20;99.90
26262;DHT22;13988;52.446;13.280;2023-08-12T00:46:43;17.10;99.90
26262;DHT22;13988;52.446;13.280;2023-08-12T00:49:10;17.00;99.90
26262;DHT22;13988;52.446;13.280;2023-08-12T00:51:38;17.10;99.90
26262;DHT22;13988;52.446;13.280;2023-08-12T00:54:05;17.10;99.90
26262;DHT22;13988;52.446;13.280;2023-08-12T00:56:31;17.10;99.90
26262;DHT22;13988;52.446;13.280;2023-08-12T00:59:00;17.10;99.90
26262;DHT22;13988;52.446;13.280;2023-08-12T01:01:27;17.10;99.90
26262;DHT22;13988;52.446;13.280;2023-08-12T01:03:53;17.00;99.90
26262;DHT22;13988;52.446;13.280;2023-08-12T01:06:18;17.10;99.90
26262;DHT22;13988;52.446;13.280;2023-08-12T01:08:44;17.10;99.90
26262;DHT22;13988;52.446;13.280;2023-08-12T01:14:00;17.00;99.90
26262;DHT22;13988;52.446;13.280;2023-08-12T01:16:32;17.00;99.90
26262;DHT22;13988;52.446;13.280;2023-08-12T01:19:00;17.00;99.90
26262;DHT22;13988;52.446;13.280;2023-08-12T01:21:30;17.00;99.90
26262;DHT22;13988;52.446;13.280;2023-08-12T01:23:56;16.90;99.90
26262;DHT22;13988;52.446;13.280;2023-08-12T01:26:22;16.90;99.90
26262;DHT22;13988;52.446;13.280;2023-08-12T01:28:48;16.90;99.90
26262;DHT22;13988;52.446;13.280;2023-08-12T01:31:42;16.80;99.90
26262;DHT22;13988;52.446;13.280;2023-08-12T01:34:23;16.80;99.90
26262;DHT22;13988;52.446;13.280;2023-08-12T01:36:55;16.80;99.90
26262;DHT22;13988;52.446;13.280;2023-08-12T01:39:23;16.80;99.90
26262;DHT22;13988;52.446;13.280;2023-08-12T01:41:50;16.80;99.90
26262;DHT22;13988;52.446;13.280;2023-08-12T01:44:17;16.80;99.90
26262;DHT22;13988;52.446;13.280;2023-08-12T01:46:44;16.80;99.90
26262;DHT22;13988;52.446;13.280;2023-08-12T01:49:09;16.70;99.90
26262;DHT22;13988;52.446;13.280;2023-08-12T01:51:35;16.70;99.90
26262;DHT22;13988;52.446;13.280;2023-08-12T01:54:01;16.70;99.90
26262;DHT22;13988;52.446;13.280;2023-08-12T01:56:26;16.70;99.90
26262;DHT22;13988;52.446;13.280;2023-08-12T01:58:52;16.70;99.90
26262;DHT22;13988;52.446;13.280;2023-08-12T02:01:17;16.60;99.90
26262;DHT22;13988;52.446;13.280;2023-08-12T02:03:43;16.60;99.90
26262;DHT22;13988;52.446;13.280;2023-08-12T02:06:09;16.60;99.90
26262;DHT22;13988;52.446;13.280;2023-08-12T02:08:34;16.60;99.90
26262;DHT22;13988;52.446;13.280;2023-08-12T02:11:00;16.60;99.90
26262;DHT22;13988;52.446;13.280;2023-08-12T02:13:25;16.60;99.90
26262;DHT22;13988;52.446;13.280;2023-08-12T02:15:51;16.70;99.90
26262;DHT22;13988;52.446;13.280;2023-08-12T02:18:17;16.70;99.90
26262;DHT22;13988;52.446;13.280;2023-08-12T02:20:42;16.70;99.90
26262;DHT22;13988;52.446;13.280;2023-08-12T02:23:08;16.70;99.90
26262;DHT22;13988;52.446;13.280;2023-08-12T02:25:33;16.70;99.90
26262;DHT22;13988;52.446;13.280;2023-08-12T02:27:59;16.80;99.90
26262;DHT22;13988;52.446;13.280;2023-08-12T02:30:25;16.70;99.90
26262;DHT22;13988;52.446;13.280;2023-08-12T02:32:50;16.80;99.90
26262;DHT22;13988;52.446;13.280;2023-08-12T02:35:18;16.80;99.90
26262;DHT22;13988;52.446;13.280;2023-08-12T02:37:43;16.80;99.90
26262;DHT22;13988;52.446;13.280;2023-08-12T02:40:09;16.80;99.90
26262;DHT22;13988;52.446;13.280;2023-08-12T02:42:36;16.80;99.90
26262;DHT22;13988;52.446;13.280;2023-08-12T02:45:02;16.80;99.90
26262;DHT22;13988;52.446;13.280;2023-08-12T02:47:27;16.80;99.90
26262;DHT22;13988;52.446;13.280;2023-08-12T02:49:53;16.80;99.90
26262;DHT22;13988;52.446;13.280;2023-08-12T02:52:19;16.80;99.90
26262;DHT22;13988;52.446;13.280;2023-08-12T02:54:44;16.80;99.90
26262;DHT22;13988;52.446;13.280;2023-08-12T02:57:10;16.80;99.90
26262;DHT22;13988;52.446;13.280;2023-08-12T02:59:35;16.80;99.90
26262;DHT22;13988;52.446;13.280;2023-08-12T03:02:01;16.80;99.90
26262;DHT22;13988;52.446;13.280;2023-08-12T03:04:28;16.80;99.90
26262;DHT22;13988;52.446;13.280;2023-08-12T03:06:54;16.70;99.90
26262;DHT22;13988;52.446;13.280;2023-08-12T03:09:20;16.70;99.90
26262;DHT22;13988;52.446;13.280;2023-08-12T03:11:45;16.70;99.90
26262;DHT22;13988;52.446;13.280;2023-08-12T03:14:11;16.70;99.90
26262;DHT22;13988;52.446;13.280;2023-08-12T03:16:37;16.70;99.90
26262;DHT22;13988;52.446;13.280;2023-08-12T03:19:02;16.60;99.90
26262;DHT22;13988;52.446;13.280;2023-08-12T03:21:28;16.60;99.90
26262;DHT22;13988;52.446;13.280;2023-08-12T03:23:53;16.60;99.90
26262;DHT22;13988;52.446;13.280;2023-08-12T03:26:19;16.60;99.90
26262;DHT22;13988;52.446;13.280;2023-08-12T03:28:45;16.50;99.90
26262;DHT22;13988;52.446;13.280;2023-08-12T03:31:10;16.50;99.90
26262;DHT22;13988;52.446;13.280;2023-08-12T03:33:36;16.60;99.90
26262;DHT22;13988;52.446;13.280;2023-08-12T03:36:02;16.50;99.90
26262;DHT22;13988;52.446;13.280;2023-08-12T03:38:28;16.40;99.90
26262;DHT22;13988;52.446;13.280;2023-08-12T03:40:53;16.40;99.90
26262;DHT22;13988;52.446;13.280;2023-08-12T03:43:19;16.50;99.90
26262;DHT22;13988;52.446;13.280;2023-08-12T03:45:45;16.50;99.90
26262;DHT22;13988;52.446;13.280;2023-08-12T03:48:11;16.50;99.90
26262;DHT22;13988;52.446;13.280;2023-08-12T03:50:38;16.50;99.90
26262;DHT22;13988;52.446;13.280;2023-08-12T03:53:04;16.40;99.90
26262;DHT22;13988;52.446;13.280;2023-08-12T03:55:31;16.40;99.90
26262;DHT22;13988;52.446;13.280;2023-08-12T03:57:57;16.50;99.90
26262;DHT22;13988;52.446;13.280;2023-08-12T04:00:23;16.40;99.90
26262;DHT22;13988;52.446;13.280;2023-08-12T04:02:49;16.40;99.90
26262;DHT22;13988;52.446;13.280;2023-08-12T04:05:14;16.40;99.90
26262;DHT22;13988;52.446;13.280;2023-08-12T04:07:40;16.50;99.90
26262;DHT22;13988;52.446;13.280;2023-08-12T04:10:06;16.50;99.90
26262;DHT22;13988;52.446;13.280;2023-08-12T04:12:32;16.50;99.90
26262;DHT22;13988;52.446;13.280;2023-08-12T04:14:58;16.60;99.90
26262;DHT22;13988;52.446;13.280;2023-08-12T04:17:23;16.60;99.90
26262;DHT22;13988;52.446;13.280;2023-08-12T04:19:49;16.60;99.90
26262;DHT22;13988;52.446;13.280;2023-08-12T04:22:15;16.60;99.90
26262;DHT22;13988;52.446;13.280;2023-08-12T04:24:42;16.60;99.90
26262;DHT22;13988;52.446;13.280;2023-08-12T04:27:07;16.60;99.90
26262;DHT22;13988;52.446;13.280;2023-08-12T04:29:34;16.60;99.90
26262;DHT22;13988;52.446;13.280;2023-08-12T04:32:00;16.60;99.90
26262;DHT22;13988;52.446;13.280;2023-08-12T04:34:25;16.60;99.90
26262;DHT22;13988;52.446;13.280;2023-08-12T04:36:51;16.70;99.90
26262;DHT22;13988;52.446;13.280;2023-08-12T04:39:16;16.70;99.90
26262;DHT22;13988;52.446;13.280;2023-08-12T04:41:42;16.80;99.90
26262;DHT22;13988;52.446;13.280;2023-08-12T04:44:08;16.80;99.90
26262;DHT22;13988;52.446;13.280;2023-08-12T04:46:33;16.90;99.90
26262;DHT22;13988;52.446;13.280;2023-08-12T04:48:59;17.10;99.90
26262;DHT22;13988;52.446;13.280;2023-08-12T04:51:25;17.10;99.90
26262;DHT22;13988;52.446;13.280;2023-08-12T04:53:50;17.10;99.90
26262;DHT22;13988;52.446;13.280;2023-08-12T04:56:16;17.20;99.90
26262;DHT22;13988;52.446;13.280;2023-08-12T04:58:42;17.30;99.90
26262;DHT22;13988;52.446;13.280;2023-08-12T05:01:08;17.40;99.90
26262;DHT22;13988;52.446;13.280;2023-08-12T05:03:33;17.50;99.90
26262;DHT22;13988;52.446;13.280;2023-08-12T05:05:59;17.50;99.90
26262;DHT22;13988;52.446;13.280;2023-08-12T05:08:25;17.60;99.90
26262;DHT22;13988;52.446;13.280;2023-08-12T05:10:50;17.80;99.90
26262;DHT22;13988;52.446;13.280;2023-08-12T05:13:17;18.00;99.90
26262;DHT22;13988;52.446;13.280;2023-08-12T05:15:46;18.10;99.90
26262;DHT22;13988;52.446;13.280;2023-08-12T05:18:12;18.30;99.90
26262;DHT22;13988;52.446;13.280;2023-08-12T05:20:42;18.40;99.90
26262;DHT22;13988;52.446;13.280;2023-08-12T05:23:08;18.50;99.90
26262;DHT22;13988;52.446;13.280;2023-08-12T05:25:34;18.70;99.90
26262;DHT22;13988;52.446;13.280;2023-08-12T05:27:59;18.90;99.90
26262;DHT22;13988;52.446;13.280;2023-08-12T05:30:25;19.00;99.90
26262;DHT22;13988;52.446;13.280;2023-08-12T05:32:51;19.10;99.90
26262;DHT22;13988;52.446;13.280;2023-08-12T05:35:16;19.20;99.90
26262;DHT22;13988;52.446;13.280;2023-08-12T05:37:42;19.20;99.90
26262;DHT22;13988;52.446;13.280;2023-08-12T05:40:11;19.30;99.90
26262;DHT22;13988;52.446;13.280;2023-08-12T05:42:37;19.40;99.90
26262;DHT22;13988;52.446;13.280;2023-08-12T05:45:03;19.40;99.90
26262;DHT22;13988;52.446;13.280;2023-08-12T05:47:29;19.40;99.90
26262;DHT22;13988;52.446;13.280;2023-08-12T05:49:55;19.40;99.90
26262;DHT22;13988;52.446;13.280;2023-08-12T05:52:20;19.40;99.90
26262;DHT22;13988;52.446;13.280;2023-08-12T05:54:46;19.50;99.90
26262;DHT22;13988;52.446;13.280;2023-08-12T05:57:12;19.60;99.90
26262;DHT22;13988;52.446;13.280;2023-08-12T05:59:37;19.60;99.90
26262;DHT22;13988;52.446;13.280;2023-08-12T06:02:03;19.70;99.90
26262;DHT22;13988;52.446;13.280;2023-08-12T06:04:29;19.80;99.90
26262;DHT22;13988;52.446;13.280;2023-08-12T06:06:55;19.90;99.90
26262;DHT22;13988;52.446;13.280;2023-08-12T06:09:21;20.00;99.90
26262;DHT22;13988;52.446;13.280;2023-08-12T06:11:47;20.10;99.90
26262;DHT22;13988;52.446;13.280;2023-08-12T06:14:12;20.20;99.90
26262;DHT22;13988;52.446;13.280;2023-08-12T06:16:38;20.20;99.90
26262;DHT22;13988;52.446;13.280;2023-08-12T06:19:04;20.50;99.90
26262;DHT22;13988;52.446;13.280;2023-08-12T06:21:29;20.70;99.90
26262;DHT22;13988;52.446;13.280;2023-08-12T06:23:55;20.70;99.90
26262;DHT22;13988;52.446;13.280;2023-08-12T06:26:21;20.80;99.90
26262;DHT22;13988;52.446;13.280;2023-08-12T06:28:47;20.90;99.90
26262;DHT22;13988;52.446;13.280;2023-08-12T06:31:12;21.20;99.90
26262;DHT22;13988;52.446;13.280;2023-08-12T06:33:38;21.40;99.90
26262;DHT22;13988;52.446;13.280;2023-08-12T06:36:04;21.50;99.90
26262;DHT22;13988;52.446;13.280;2023-08-12T06:38:30;21.50;99.90
26262;DHT22;13988;52.446;13.280;2023-08-12T06:40:55;21.40;99.90
26262;DHT22;13988;52.446;13.280;2023-08-12T06:43:21;21.40;99.90
26262;DHT22;13988;52.446;13.280;2023-08-12T06:45:46;21.20;99.90
26262;DHT22;13988;52.446;13.280;2023-08-12T06:48:12;21.10;99.90
26262;DHT22;13988;52.446;13.280;2023-08-12T06:50:38;21.00;99.90
26262;DHT22;13988;52.446;13.280;2023-08-12T06:53:03;21.00;99.90
26262;DHT22;13988;52.446;13.280;2023-08-12T06:55:29;21.10;99.90
26262;DHT22;13988;52.446;13.280;2023-08-12T06:57:55;21.30;99.90
26262;DHT22;13988;52.446;13.280;2023-08-12T07:00:20;21.60;99.90
26262;DHT22;13988;52.446;13.280;2023-08-12T07:02:46;21.70;99.90
26262;DHT22;13988;52.446;13.280;2023-08-12T07:05:11;21.90;99.90
26262;DHT22;13988;52.446;13.280;2023-08-12T07:07:37;22.00;99.90
26262;DHT22;13988;52.446;13.280;2023-08-12T07:10:03;22.00;99.90
26262;DHT22;13988;52.446;13.280;2023-08-12T07:12:29;22.70;99.90
26262;DHT22;13988;52.446;13.280;2023-08-12T07:14:55;23.30;99.90
26262;DHT22;13988;52.446;13.280;2023-08-12T07:17:21;24.40;99.90
26262;DHT22;13988;52.446;13.280;2023-08-12T07:19:47;24.50;99.90
26262;DHT22;13988;52.446;13.280;2023-08-12T07:22:13;24.20;99.90
26262;DHT22;13988;52.446;13.280;2023-08-12T07:24:38;23.90;99.90
26262;DHT22;13988;52.446;13.280;2023-08-12T07:27:04;23.70;99.90
26262;DHT22;13988;52.446;13.280;2023-08-12T07:29:30;23.40;99.90
26262;DHT22;13988;52.446;13.280;2023-08-12T07:31:56;23.30;99.90
26262;DHT22;13988;52.446;13.280;2023-08-12T07:34:21;23.10;99.90
26262;DHT22;13988;52.446;13.280;2023-08-12T07:36:47;22.90;99.90
26262;DHT22;13988;52.446;13.280;2023-08-12T07:39:13;22.80;99.90
26262;DHT22;13988;52.446;13.280;2023-08-12T07:41:38;22.90;99.90
26262;DHT22;13988;52.446;13.280;2023-08-12T07:44:04;23.00;99.90
26262;DHT22;13988;52.446;13.280;2023-08-12T07:46:30;23.00;99.90
26262;DHT22;13988;52.446;13.280;2023-08-12T07:48:56;23.10;99.90
26262;DHT22;13988;52.446;13.280;2023-08-12T07:51:22;23.20;99.90
26262;DHT22;13988;52.446;13.280;2023-08-12T07:53:48;23.20;99.90
26262;DHT22;13988;52.446;13.280;2023-08-12T07:56:13;23.10;99.90
26262;DHT22;13988;52.446;13.280;2023-08-12T07:58:39;23.10;99.90
26262;DHT22;13988;52.446;13.280;2023-08-12T08:01:05;23.10;99.90
26262;DHT22;13988;52.446;13.280;2023-08-12T08:03:30;23.10;99.90
26262;DHT22;13988;52.446;13.280;2023-08-12T08:05:56;23.10;99.90
26262;DHT22;13988;52.446;13.280;2023-08-12T08:08:22;23.10;99.90
26262;DHT22;13988;52.446;13.280;2023-08-12T08:10:48;23.10;99.90
26262;DHT22;13988;52.446;13.280;2023-08-12T08:13:13;23.20;99.90
26262;DHT22;13988;52.446;13.280;2023-08-12T08:15:39;23.10;99.90
26262;DHT22;13988;52.446;13.280;2023-08-12T08:18:05;23.00;99.90
26262;DHT22;13988;52.446;13.280;2023-08-12T08:20:31;22.90;99.90
26262;DHT22;13988;52.446;13.280;2023-08-12T08:22:56;22.80;99.90
26262;DHT22;13988;52.446;13.280;2023-08-12T08:25:22;22.60;99.90
26262;DHT22;13988;52.446;13.280;2023-08-12T08:27:48;22.50;99.90
26262;DHT22;13988;52.446;13.280;2023-08-12T08:30:14;22.50;99.90
26262;DHT22;13988;52.446;13.280;2023-08-12T08:32:40;22.30;99.90
26262;DHT22;13988;52.446;13.280;2023-08-12T08:35:06;22.30;99.90
26262;DHT22;13988;52.446;13.280;2023-08-12T08:37:31;22.20;99.90
26262;DHT22;13988;52.446;13.280;2023-08-12T08:39:57;22.10;99.90
26262;DHT22;13988;52.446;13.280;2023-08-12T08:42:24;22.00;99.90
26262;DHT22;13988;52.446;13.280;2023-08-12T08:44:52;22.10;99.90
26262;DHT22;13988;52.446;13.280;2023-08-12T08:47:21;22.10;99.90
26262;DHT22;13988;52.446;13.280;2023-08-12T08:49:49;22.10;99.90
26262;DHT22;13988;52.446;13.280;2023-08-12T08:52:16;22.10;99.90
26262;DHT22;13988;52.446;13.280;2023-08-12T08:54:41;22.20;99.90
26262;DHT22;13988;52.446;13.280;2023-08-12T08:57:08;22.30;99.90
26262;DHT22;13988;52.446;13.280;2023-08-12T08:59:34;22.40;99.90
26262;DHT22;13988;52.446;13.280;2023-08-12T09:01:59;22.40;99.90
26262;DHT22;13988;52.446;13.280;2023-08-12T09:04:32;22.40;99.90
26262;DHT22;13988;52.446;13.280;2023-08-12T09:06:58;22.50;99.90
26262;DHT22;13988;52.446;13.280;2023-08-12T09:09:25;22.40;99.90
26262;DHT22;13988;52.446;13.280;2023-08-12T09:11:53;22.50;99.90
26262;DHT22;13988;52.446;13.280;2023-08-12T09:14:19;22.60;99.90
26262;DHT22;13988;52.446;13.280;2023-08-12T09:16:45;22.50;99.90
26262;DHT22;13988;52.446;13.280;2023-08-12T09:19:11;22.60;99.90
26262;DHT22;13988;52.446;13.280;2023-08-12T09:21:37;22.80;99.90
26262;DHT22;13988;52.446;13.280;2023-08-12T09:24:03;22.80;99.90
26262;DHT22;13988;52.446;13.280;2023-08-12T09:26:30;23.10;99.90
26262;DHT22;13988;52.446;13.280;2023-08-12T09:28:55;23.10;99.90
26262;DHT22;13988;52.446;13.280;2023-08-12T09:31:29;23.30;99.90
26262;DHT22;13988;52.446;13.280;2023-08-12T09:34:05;23.40;99.90
26262;DHT22;13988;52.446;13.280;2023-08-12T09:36:34;23.40;99.90
26262;DHT22;13988;52.446;13.280;2023-08-12T09:39:00;23.40;99.90
26262;DHT22;13988;52.446;13.280;2023-08-12T09:41:28;23.30;99.90
26262;DHT22;13988;52.446;13.280;2023-08-12T09:43:55;23.30;99.90
26262;DHT22;13988;52.446;13.280;2023-08-12T09:46:23;23.40;99.90
26262;DHT22;13988;52.446;13.280;2023-08-12T09:48:52;23.60;99.90
26262;DHT22;13988;52.446;13.280;2023-08-12T09:51:18;23.80;99.90
26262;DHT22;13988;52.446;13.280;2023-08-12T09:53:44;23.90;99.90
26262;DHT22;13988;52.446;13.280;2023-08-12T09:56:13;24.20;99.90
26262;DHT22;13988;52.446;13.280;2023-08-12T09:58:40;24.20;99.90
26262;DHT22;13988;52.446;13.280;2023-08-12T10:01:10;24.00;99.90
26262;DHT22;13988;52.446;13.280;2023-08-12T10:03:36;24.00;99.90
26262;DHT22;13988;52.446;13.280;2023-08-12T10:06:03;24.00;99.90
26262;DHT22;13988;52.446;13.280;2023-08-12T10:08:29;24.00;99.90
26262;DHT22;13988;52.446;13.280;2023-08-12T10:10:55;24.00;99.90
26262;DHT22;13988;52.446;13.280;2023-08-12T10:13:23;24.00;99.90
26262;DHT22;13988;52.446;13.280;2023-08-12T10:15:52;24.00;99.90
26262;DHT22;13988;52.446;13.280;2023-08-12T10:18:18;24.10;99.90
26262;DHT22;13988;52.446;13.280;2023-08-12T10:20:46;24.20;99.90
26262;DHT22;13988;52.446;13.280;2023-08-12T10:23:16;24.30;99.90
26262;DHT22;13988;52.446;13.280;2023-08-12T10:25:44;24.30;99.90
26262;DHT22;13988;52.446;13.280;2023-08-12T10:28:11;24.30;99.90
26262;DHT22;13988;52.446;13.280;2023-08-12T10:30:37;24.40;99.90
26262;DHT22;13988;52.446;13.280;2023-08-12T10:33:04;24.50;99.90
26262;DHT22;13988;52.446;13.280;2023-08-12T10:35:48;24.60;99.90
26262;DHT22;13988;52.446;13.280;2023-08-12T10:38:17;24.60;99.90
26262;DHT22;13988;52.446;13.280;2023-08-12T10:40:43;24.80;99.90
26262;DHT22;13988;52.446;13.280;2023-08-12T10:43:09;24.90;99.90
26262;DHT22;13988;52.446;13.280;2023-08-12T10:45:43;25.00;99.90
26262;DHT22;13988;52.446;13.280;2023-08-12T10:50:34;25.10;99.90
26262;DHT22;13988;52.446;13.280;2023-08-12T10:53:32;25.30;99.90
26262;DHT22;13988;52.446;13.280;2023-08-12T10:56:01;25.30;99.90
26262;DHT22;13988;52.446;13.280;2023-08-12T10:58:47;25.40;99.90
26262;DHT22;13988;52.446;13.280;2023-08-12T11:01:19;25.40;99.90
26262;DHT22;13988;52.446;13.280;2023-08-12T11:03:47;25.40;99.90
26262;DHT22;13988;52.446;13.280;2023-08-12T11:06:13;25.40;99.90
26262;DHT22;13988;52.446;13.280;2023-08-12T11:08:52;25.50;99.90
26262;DHT22;13988;52.446;13.280;2023-08-12T11:11:22;25.70;99.90
26262;DHT22;13988;52.446;13.280;2023-08-12T11:13:53;25.60;99.90
26262;DHT22;13988;52.446;13.280;2023-08-12T11:16:40;25.50;99.90
26262;DHT22;13988;52.446;13.280;2023-08-12T11:19:08;25.50;99.90
26262;DHT22;13988;52.446;13.280;2023-08-12T11:21:36;25.30;99.90
26262;DHT22;13988;52.446;13.280;2023-08-12T11:24:02;25.20;99.90
26262;DHT22;13988;52.446;13.280;2023-08-12T11:26:28;25.00;99.90
26262;DHT22;13988;52.446;13.280;2023-08-12T11:28:54;24.90;99.90
26262;DHT22;13988;52.446;13.280;2023-08-12T11:31:19;24.80;99.90
26262;DHT22;13988;52.446;13.280;2023-08-12T11:33:46;24.80;99.90
26262;DHT22;13988;52.446;13.280;2023-08-12T11:36:13;24.70;99.90
26262;DHT22;13988;52.446;13.280;2023-08-12T11:38:42;24.60;99.90
26262;DHT22;13988;52.446;13.280;2023-08-12T11:41:07;24.40;99.90
26262;DHT22;13988;52.446;13.280;2023-08-12T11:43:33;24.40;99.90
26262;DHT22;13988;52.446;13.280;2023-08-12T11:45:59;24.50;99.90
26262;DHT22;13988;52.446;13.280;2023-08-12T11:48:27;24.50;99.90
26262;DHT22;13988;52.446;13.280;2023-08-12T11:50:53;24.60;99.90
26262;DHT22;13988;52.446;13.280;2023-08-12T11:53:19;24.70;99.90
26262;DHT22;13988;52.446;13.280;2023-08-12T11:55:45;24.60;99.90
26262;DHT22;13988;52.446;13.280;2023-08-12T11:58:13;24.60;99.90
26262;DHT22;13988;52.446;13.280;2023-08-12T12:00:39;24.50;99.90
26262;DHT22;13988;52.446;13.280;2023-08-12T12:03:04;24.40;99.90
26262;DHT22;13988;52.446;13.280;2023-08-12T12:05:31;24.40;99.90
26262;DHT22;13988;52.446;13.280;2023-08-12T12:07:59;24.20;99.90
26262;DHT22;13988;52.446;13.280;2023-08-12T12:10:28;24.10;99.90
26262;DHT22;13988;52.446;13.280;2023-08-12T12:12:55;24.10;99.90
26262;DHT22;13988;52.446;13.280;2023-08-12T12:15:21;24.10;99.90
26262;DHT22;13988;52.446;13.280;2023-08-12T12:17:50;24.10;99.90
26262;DHT22;13988;52.446;13.280;2023-08-12T12:20:16;24.10;99.90
26262;DHT22;13988;52.446;13.280;2023-08-12T12:22:43;24.10;99.90
26262;DHT22;13988;52.446;13.280;2023-08-12T12:25:11;24.20;99.90
26262;DHT22;13988;52.446;13.280;2023-08-12T12:27:38;23.90;99.90
26262;DHT22;13988;52.446;13.280;2023-08-12T12:30:05;23.90;99.90
26262;DHT22;13988;52.446;13.280;2023-08-12T12:32:32;24.00;99.90
26262;DHT22;13988;52.446;13.280;2023-08-12T12:34:58;24.00;99.90
26262;DHT22;13988;52.446;13.280;2023-08-12T12:37:24;24.20;99.90
26262;DHT22;13988;52.446;13.280;2023-08-12T12:39:49;24.40;99.90
26262;DHT22;13988;52.446;13.280;2023-08-12T12:42:15;24.50;99.90
26262;DHT22;13988;52.446;13.280;2023-08-12T12:44:41;24.90;99.90
26262;DHT22;13988;52.446;13.280;2023-08-12T12:47:06;25.00;99.90
26262;DHT22;13988;52.446;13.280;2023-08-12T12:49:32;25.20;99.90
26262;DHT22;13988;52.446;13.280;2023-08-12T12:51:58;25.40;99.90
26262;DHT22;13988;52.446;13.280;2023-08-12T12:54:23;25.60;99.90
26262;DHT22;13988;52.446;13.280;2023-08-12T12:56:49;25.70;99.90
26262;DHT22;13988;52.446;13.280;2023-08-12T12:59:14;25.70;99.90
26262;DHT22;13988;52.446;13.280;2023-08-12T13:01:41;25.70;99.90
26262;DHT22;13988;52.446;13.280;2023-08-12T13:04:06;25.70;99.90
26262;DHT22;13988;52.446;13.280;2023-08-12T13:06:34;26.00;99.90
26262;DHT22;13988;52.446;13.280;2023-08-12T13:09:00;26.30;99.90
26262;DHT22;13988;52.446;13.280;2023-08-12T13:11:25;26.50;99.90
26262;DHT22;13988;52.446;13.280;2023-08-12T13:13:52;26.60;99.90
26262;DHT22;13988;52.446;13.280;2023-08-12T13:16:17;26.70;99.90
26262;DHT22;13988;52.446;13.280;2023-08-12T13:18:43;26.90;99.90
26262;DHT22;13988;52.446;13.280;2023-08-12T13:21:08;27.40;99.90
26262;DHT22;13988;52.446;13.280;2023-08-12T13:23:34;27.10;99.90
26262;DHT22;13988;52.446;13.280;2023-08-12T13:26:00;27.10;99.90
26262;DHT22;13988;52.446;13.280;2023-08-12T13:28:25;27.30;99.90
26262;DHT22;13988;52.446;13.280;2023-08-12T13:30:51;28.00;99.90
26262;DHT22;13988;52.446;13.280;2023-08-12T13:33:18;27.80;99.90
26262;DHT22;13988;52.446;13.280;2023-08-12T13:35:43;27.90;99.90
26262;DHT22;13988;52.446;13.280;2023-08-12T13:38:09;28.30;99.90
26262;DHT22;13988;52.446;13.280;2023-08-12T13:40:35;28.10;99.90
26262;DHT22;13988;52.446;13.280;2023-08-12T13:43:00;27.70;99.90
26262;DHT22;13988;52.446;13.280;2023-08-12T13:45:26;27.30;99.90
26262;DHT22;13988;52.446;13.280;2023-08-12T13:47:51;27.30;99.90
26262;DHT22;13988;52.446;13.280;2023-08-12T13:50:17;27.50;99.90
26262;DHT22;13988;52.446;13.280;2023-08-12T13:52:44;27.90;99.90
26262;DHT22;13988;52.446;13.280;2023-08-12T13:55:11;27.80;99.90
26262;DHT22;13988;52.446;13.280;2023-08-12T13:57:37;27.80;99.90
26262;DHT22;13988;52.446;13.280;2023-08-12T14:00:03;27.50;99.90
26262;DHT22;13988;52.446;13.280;2023-08-12T14:02:34;27.30;99.90
26262;DHT22;13988;52.446;13.280;2023-08-12T14:05:00;27.50;99.90
26262;DHT22;13988;52.446;13.280;2023-08-12T14:07:26;27.60;99.90
26262;DHT22;13988;52.446;13.280;2023-08-12T14:09:51;27.80;99.90
26262;DHT22;13988;52.446;13.280;2023-08-12T14:12:18;27.90;99.90
26262;DHT22;13988;52.446;13.280;2023-08-12T14:14:43;27.90;99.90
26262;DHT22;13988;52.446;13.280;2023-08-12T14:17:10;28.10;99.90
26262;DHT22;13988;52.446;13.280;2023-08-12T14:19:39;28.00;99.90
26262;DHT22;13988;52.446;13.280;2023-08-12T14:22:05;27.70;99.90
26262;DHT22;13988;52.446;13.280;2023-08-12T14:24:31;27.80;99.90
26262;DHT22;13988;52.446;13.280;2023-08-12T14:26:56;28.20;99.90
26262;DHT22;13988;52.446;13.280;2023-08-12T14:29:22;28.80;99.90
26262;DHT22;13988;52.446;13.280;2023-08-12T14:31:48;29.00;99.90
26262;DHT22;13988;52.446;13.280;2023-08-12T14:34:13;29.10;99.90
26262;DHT22;13988;52.446;13.280;2023-08-12T14:36:39;28.90;99.90
26262;DHT22;13988;52.446;13.280;2023-08-12T14:39:05;29.20;99.90
26262;DHT22;13988;52.446;13.280;2023-08-12T14:41:30;29.20;99.90
26262;DHT22;13988;52.446;13.280;2023-08-12T14:43:56;29.40;99.90
26262;DHT22;13988;52.446;13.280;2023-08-12T14:46:21;29.30;99.90
26262;DHT22;13988;52.446;13.280;2023-08-12T14:48:47;29.10;99.90
26262;DHT22;13988;52.446;13.280;2023-08-12T14:51:13;28.80;99.90
26262;DHT22;13988;52.446;13.280;2023-08-12T14:53:38;29.00;99.90
26262;DHT22;13988;52.446;13.280;2023-08-12T14:56:04;28.90;99.90
26262;DHT22;13988;52.446;13.280;2023-08-12T14:58:29;28.70;99.90
26262;DHT22;13988;52.446;13.280;2023-08-12T15:00:55;28.40;99.90
26262;DHT22;13988;52.446;13.280;2023-08-12T15:03:22;28.00;99.90
26262;DHT22;13988;52.446;13.280;2023-08-12T15:05:47;27.80;99.90
26262;DHT22;13988;52.446;13.280;2023-08-12T15:08:13;27.60;99.90
26262;DHT22;13988;52.446;13.280;2023-08-12T15:10:39;27.60;99.90
26262;DHT22;13988;52.446;13.280;2023-08-12T15:13:04;27.60;99.90
26262;DHT22;13988;52.446;13.280;2023-08-12T15:15:30;27.50;99.90